sensor_id;sensor_type;location;lat;lon;timestamp;P1;durP1;ratioP1;P2;durP2;ratioP2
47894;SDS011;33653;52.302;8.134;2023-08-20T00:01:04;2.60;;;2.10;;
47894;SDS011;33653;52.302;8.134;2023-08-20T00:03:34;3.55;;;2.08;;
47894;SDS011;33653;52.302;8.134;2023-08-20T00:06:03;3.67;;;2.22;;
47894;SDS011;33653;52.302;8.134;2023-08-20T00:08:32;6.18;;;2.22;;
47894;SDS011;33653;52.302;8.134;2023-08-20T00:11:00;5.40;;;2.17;;
47894;SDS011;33653;52.302;8.134;2023-08-20T00:13:29;3.15;;;2.00;;
47894;SDS011;33653;52.302;8.134;2023-08-20T00:15:58;4.60;;;1.98;;
47894;SDS011;33653;52.302;8.134;2023-08-20T00:18:27;5.40;;;3.00;;
47894;SDS011;33653;52.302;8.134;2023-08-20T00:20:56;2.90;;;2.10;;
47894;SDS011;33653;52.302;8.134;2023-08-20T00:23:24;6.07;;;2.30;;
47894;SDS011;33653;52.302;8.134;2023-08-20T00:25:53;2.45;;;2.03;;
47894;SDS011;33653;52.302;8.134;2023-08-20T00:28:22;4.88;;;2.20;;
47894;SDS011;33653;52.302;8.134;2023-08-20T00:30:53;2.95;;;2.33;;
47894;SDS011;33653;52.302;8.134;2023-08-20T00:33:21;5.95;;;2.63;;
47894;SDS011;33653;52.302;8.134;2023-08-20T00:35:49;4.03;;;2.63;;
47894;SDS011;33653;52.302;8.134;2023-08-20T00:38:18;3.45;;;2.30;;
47894;SDS011;33653;52.302;8.134;2023-08-20T00:40:46;4.22;;;2.33;;
47894;SDS011;33653;52.302;8.134;2023-08-20T00:43:14;3.75;;;2.15;;
47894;SDS011;33653;52.302;8.134;2023-08-20T00:45:42;3.92;;;2.13;;
47894;SDS011;33653;52.302;8.134;2023-08-20T00:48:11;3.42;;;1.95;;
47894;SDS011;33653;52.302;8.134;2023-08-20T00:50:39;3.75;;;2.03;;
47894;SDS011;33653;52.302;8.134;2023-08-20T00:53:08;3.50;;;2.47;;
47894;SDS011;33653;52.302;8.134;2023-08-20T00:58:10;3.65;;;2.33;;
47894;SDS011;33653;52.302;8.134;2023-08-20T01:03:33;4.72;;;2.40;;
47894;SDS011;33653;52.302;8.134;2023-08-20T01:06:20;3.08;;;2.38;;
47894;SDS011;33653;52.302;8.134;2023-08-20T01:09:05;6.32;;;2.03;;
47894;SDS011;33653;52.302;8.134;2023-08-20T01:12:06;4.30;;;2.47;;
47894;SDS011;33653;52.302;8.134;2023-08-20T01:14:35;4.10;;;2.08;;
47894;SDS011;33653;52.302;8.134;2023-08-20T01:17:03;2.33;;;1.77;;
47894;SDS011;33653;52.302;8.134;2023-08-20T01:19:32;3.65;;;2.20;;
47894;SDS011;33653;52.302;8.134;2023-08-20T01:22:05;5.80;;;2.55;;
47894;SDS011;33653;52.302;8.134;2023-08-20T01:25:11;3.50;;;2.30;;
47894;SDS011;33653;52.302;8.134;2023-08-20T01:30:57;6.45;;;2.30;;
47894;SDS011;33653;52.302;8.134;2023-08-20T01:33:28;5.05;;;2.03;;
47894;SDS011;33653;52.302;8.134;2023-08-20T01:35:58;4.43;;;2.20;;
47894;SDS011;33653;52.302;8.134;2023-08-20T01:38:26;3.17;;;1.70;;
47894;SDS011;33653;52.302;8.134;2023-08-20T01:40:55;2.72;;;2.00;;
47894;SDS011;33653;52.302;8.134;2023-08-20T01:43:23;3.22;;;2.03;;
47894;SDS011;33653;52.302;8.134;2023-08-20T01:48:25;4.50;;;2.33;;
47894;SDS011;33653;52.302;8.134;2023-08-20T01:50:53;4.55;;;2.55;;
47894;SDS011;33653;52.302;8.134;2023-08-20T01:53:21;3.35;;;1.85;;
47894;SDS011;33653;52.302;8.134;2023-08-20T01:55:49;3.13;;;1.70;;
47894;SDS011;33653;52.302;8.134;2023-08-20T01:58:18;2.70;;;1.70;;
47894;SDS011;33653;52.302;8.134;2023-08-20T02:00:46;2.15;;;1.70;;
47894;SDS011;33653;52.302;8.134;2023-08-20T02:03:15;1.95;;;1.80;;
47894;SDS011;33653;52.302;8.134;2023-08-20T02:05:43;2.90;;;1.95;;
47894;SDS011;33653;52.302;8.134;2023-08-20T02:08:11;5.03;;;2.35;;
47894;SDS011;33653;52.302;8.134;2023-08-20T02:10:40;3.45;;;2.25;;
47894;SDS011;33653;52.302;8.134;2023-08-20T02:13:08;6.47;;;2.50;;
47894;SDS011;33653;52.302;8.134;2023-08-20T02:15:37;3.50;;;2.10;;
47894;SDS011;33653;52.302;8.134;2023-08-20T02:18:06;5.45;;;2.85;;
47894;SDS011;33653;52.302;8.134;2023-08-20T02:20:34;3.65;;;2.22;;
47894;SDS011;33653;52.302;8.134;2023-08-20T02:23:02;3.33;;;2.67;;
47894;SDS011;33653;52.302;8.134;2023-08-20T02:25:31;6.10;;;2.30;;
47894;SDS011;33653;52.302;8.134;2023-08-20T02:28:01;2.20;;;1.63;;
47894;SDS011;33653;52.302;8.134;2023-08-20T02:30:30;3.22;;;2.08;;
47894;SDS011;33653;52.302;8.134;2023-08-20T02:32:58;5.22;;;2.38;;
47894;SDS011;33653;52.302;8.134;2023-08-20T02:35:27;4.18;;;2.40;;
47894;SDS011;33653;52.302;8.134;2023-08-20T02:37:55;2.80;;;2.15;;
47894;SDS011;33653;52.302;8.134;2023-08-20T02:40:23;6.50;;;2.40;;
47894;SDS011;33653;52.302;8.134;2023-08-20T02:42:52;5.88;;;1.98;;
47894;SDS011;33653;52.302;8.134;2023-08-20T02:45:20;5.72;;;2.50;;
47894;SDS011;33653;52.302;8.134;2023-08-20T02:47:51;3.33;;;2.15;;
47894;SDS011;33653;52.302;8.134;2023-08-20T02:50:19;3.22;;;2.13;;
47894;SDS011;33653;52.302;8.134;2023-08-20T02:52:47;4.65;;;2.28;;
47894;SDS011;33653;52.302;8.134;2023-08-20T02:55:16;8.43;;;1.90;;
47894;SDS011;33653;52.302;8.134;2023-08-20T02:57:44;3.78;;;1.92;;
47894;SDS011;33653;52.302;8.134;2023-08-20T03:00:13;3.80;;;1.75;;
47894;SDS011;33653;52.302;8.134;2023-08-20T03:02:41;4.75;;;2.10;;
47894;SDS011;33653;52.302;8.134;2023-08-20T03:05:09;2.70;;;1.85;;
47894;SDS011;33653;52.302;8.134;2023-08-20T03:07:38;1.80;;;1.60;;
47894;SDS011;33653;52.302;8.134;2023-08-20T03:10:06;3.28;;;1.70;;
47894;SDS011;33653;52.302;8.134;2023-08-20T03:12:35;2.63;;;1.60;;
47894;SDS011;33653;52.302;8.134;2023-08-20T03:15:03;2.92;;;1.60;;
47894;SDS011;33653;52.302;8.134;2023-08-20T03:17:33;2.67;;;1.73;;
47894;SDS011;33653;52.302;8.134;2023-08-20T03:20:02;1.80;;;1.47;;
47894;SDS011;33653;52.302;8.134;2023-08-20T03:22:33;2.47;;;1.70;;
47894;SDS011;33653;52.302;8.134;2023-08-20T03:25:04;1.73;;;1.42;;
47894;SDS011;33653;52.302;8.134;2023-08-20T03:27:33;2.00;;;1.40;;
47894;SDS011;33653;52.302;8.134;2023-08-20T03:30:02;3.42;;;1.60;;
47894;SDS011;33653;52.302;8.134;2023-08-20T03:35:25;3.90;;;2.05;;
47894;SDS011;33653;52.302;8.134;2023-08-20T03:37:54;3.22;;;1.83;;
47894;SDS011;33653;52.302;8.134;2023-08-20T03:40:22;1.70;;;1.42;;
47894;SDS011;33653;52.302;8.134;2023-08-20T03:42:50;3.38;;;1.90;;
47894;SDS011;33653;52.302;8.134;2023-08-20T03:45:31;5.22;;;2.15;;
47894;SDS011;33653;52.302;8.134;2023-08-20T03:48:00;3.42;;;1.85;;
47894;SDS011;33653;52.302;8.134;2023-08-20T03:50:29;2.25;;;1.67;;
47894;SDS011;33653;52.302;8.134;2023-08-20T03:52:57;4.55;;;1.92;;
47894;SDS011;33653;52.302;8.134;2023-08-20T03:55:27;2.10;;;1.70;;
47894;SDS011;33653;52.302;8.134;2023-08-20T03:57:56;1.58;;;1.48;;
47894;SDS011;33653;52.302;8.134;2023-08-20T04:00:24;2.80;;;1.55;;
47894;SDS011;33653;52.302;8.134;2023-08-20T04:03:08;3.72;;;2.25;;
47894;SDS011;33653;52.302;8.134;2023-08-20T04:05:36;2.00;;;1.70;;
47894;SDS011;33653;52.302;8.134;2023-08-20T04:08:05;5.97;;;2.17;;
47894;SDS011;33653;52.302;8.134;2023-08-20T04:10:34;2.50;;;1.60;;
47894;SDS011;33653;52.302;8.134;2023-08-20T04:13:06;2.25;;;1.83;;
47894;SDS011;33653;52.302;8.134;2023-08-20T04:15:34;2.20;;;2.00;;
47894;SDS011;33653;52.302;8.134;2023-08-20T04:18:03;5.85;;;2.17;;
47894;SDS011;33653;52.302;8.134;2023-08-20T04:20:33;2.30;;;1.40;;
47894;SDS011;33653;52.302;8.134;2023-08-20T04:23:03;3.70;;;1.80;;
47894;SDS011;33653;52.302;8.134;2023-08-20T04:25:31;2.50;;;2.15;;
47894;SDS011;33653;52.302;8.134;2023-08-20T04:28:00;3.28;;;2.30;;
47894;SDS011;33653;52.302;8.134;2023-08-20T04:30:29;3.65;;;1.90;;
47894;SDS011;33653;52.302;8.134;2023-08-20T04:32:58;3.13;;;1.80;;
47894;SDS011;33653;52.302;8.134;2023-08-20T04:35:28;3.92;;;1.73;;
47894;SDS011;33653;52.302;8.134;2023-08-20T04:37:56;5.82;;;2.10;;
47894;SDS011;33653;52.302;8.134;2023-08-20T04:40:28;3.28;;;1.92;;
47894;SDS011;33653;52.302;8.134;2023-08-20T04:42:56;4.60;;;2.00;;
47894;SDS011;33653;52.302;8.134;2023-08-20T04:45:24;3.92;;;2.00;;
47894;SDS011;33653;52.302;8.134;2023-08-20T04:47:52;3.70;;;1.90;;
47894;SDS011;33653;52.302;8.134;2023-08-20T04:50:25;5.30;;;1.90;;
47894;SDS011;33653;52.302;8.134;2023-08-20T04:52:57;8.43;;;2.42;;
47894;SDS011;33653;52.302;8.134;2023-08-20T04:55:28;2.63;;;2.03;;
47894;SDS011;33653;52.302;8.134;2023-08-20T05:00:50;2.17;;;1.75;;
47894;SDS011;33653;52.302;8.134;2023-08-20T05:03:19;1.73;;;1.60;;
47894;SDS011;33653;52.302;8.134;2023-08-20T05:05:49;3.33;;;2.13;;
47894;SDS011;33653;52.302;8.134;2023-08-20T05:08:18;5.82;;;2.30;;
47894;SDS011;33653;52.302;8.134;2023-08-20T05:10:46;3.20;;;2.80;;
47894;SDS011;33653;52.302;8.134;2023-08-20T05:15:49;5.32;;;2.95;;
47894;SDS011;33653;52.302;8.134;2023-08-20T05:18:18;4.90;;;2.53;;
47894;SDS011;33653;52.302;8.134;2023-08-20T05:20:46;3.67;;;2.20;;
47894;SDS011;33653;52.302;8.134;2023-08-20T05:23:16;4.80;;;2.50;;
47894;SDS011;33653;52.302;8.134;2023-08-20T05:25:45;4.40;;;2.58;;
47894;SDS011;33653;52.302;8.134;2023-08-20T05:28:30;2.88;;;2.35;;
47894;SDS011;33653;52.302;8.134;2023-08-20T05:30:59;5.72;;;3.03;;
47894;SDS011;33653;52.302;8.134;2023-08-20T05:33:28;4.97;;;2.15;;
47894;SDS011;33653;52.302;8.134;2023-08-20T05:35:57;9.00;;;2.78;;
47894;SDS011;33653;52.302;8.134;2023-08-20T05:38:27;5.65;;;2.50;;
47894;SDS011;33653;52.302;8.134;2023-08-20T05:40:55;4.78;;;2.50;;
47894;SDS011;33653;52.302;8.134;2023-08-20T05:43:30;4.97;;;2.80;;
47894;SDS011;33653;52.302;8.134;2023-08-20T05:48:54;4.32;;;2.80;;
47894;SDS011;33653;52.302;8.134;2023-08-20T05:51:22;3.83;;;2.55;;
47894;SDS011;33653;52.302;8.134;2023-08-20T05:53:51;4.20;;;2.83;;
47894;SDS011;33653;52.302;8.134;2023-08-20T05:56:19;4.95;;;2.30;;
47894;SDS011;33653;52.302;8.134;2023-08-20T05:58:48;6.43;;;2.47;;
47894;SDS011;33653;52.302;8.134;2023-08-20T06:01:17;6.97;;;2.50;;
47894;SDS011;33653;52.302;8.134;2023-08-20T06:03:45;6.20;;;2.45;;
47894;SDS011;33653;52.302;8.134;2023-08-20T06:06:14;4.45;;;2.35;;
47894;SDS011;33653;52.302;8.134;2023-08-20T06:08:42;6.15;;;2.33;;
47894;SDS011;33653;52.302;8.134;2023-08-20T06:11:30;5.55;;;1.92;;
47894;SDS011;33653;52.302;8.134;2023-08-20T06:13:58;4.57;;;2.13;;
47894;SDS011;33653;52.302;8.134;2023-08-20T06:16:26;3.60;;;1.85;;
47894;SDS011;33653;52.302;8.134;2023-08-20T06:18:54;5.20;;;2.17;;
47894;SDS011;33653;52.302;8.134;2023-08-20T06:21:23;3.85;;;1.90;;
47894;SDS011;33653;52.302;8.134;2023-08-20T06:23:58;2.83;;;2.00;;
47894;SDS011;33653;52.302;8.134;2023-08-20T06:26:28;10.18;;;2.20;;
47894;SDS011;33653;52.302;8.134;2023-08-20T06:28:56;7.38;;;2.40;;
47894;SDS011;33653;52.302;8.134;2023-08-20T06:31:25;4.88;;;2.83;;
47894;SDS011;33653;52.302;8.134;2023-08-20T06:33:53;5.97;;;2.03;;
47894;SDS011;33653;52.302;8.134;2023-08-20T06:36:25;4.65;;;2.45;;
47894;SDS011;33653;52.302;8.134;2023-08-20T06:38:53;6.30;;;2.13;;
47894;SDS011;33653;52.302;8.134;2023-08-20T06:41:25;5.68;;;2.03;;
47894;SDS011;33653;52.302;8.134;2023-08-20T06:44:10;6.55;;;3.15;;
47894;SDS011;33653;52.302;8.134;2023-08-20T06:49:31;5.78;;;2.55;;
47894;SDS011;33653;52.302;8.134;2023-08-20T06:51:59;5.78;;;2.75;;
47894;SDS011;33653;52.302;8.134;2023-08-20T06:54:35;4.45;;;2.85;;
47894;SDS011;33653;52.302;8.134;2023-08-20T07:02:42;3.67;;;2.42;;
47894;SDS011;33653;52.302;8.134;2023-08-20T07:05:10;6.15;;;2.45;;
47894;SDS011;33653;52.302;8.134;2023-08-20T07:07:38;9.90;;;3.13;;
47894;SDS011;33653;52.302;8.134;2023-08-20T07:10:06;7.22;;;2.65;;
47894;SDS011;33653;52.302;8.134;2023-08-20T07:12:35;9.60;;;3.10;;
47894;SDS011;33653;52.302;8.134;2023-08-20T07:15:03;4.97;;;2.90;;
47894;SDS011;33653;52.302;8.134;2023-08-20T07:17:32;7.13;;;3.03;;
47894;SDS011;33653;52.302;8.134;2023-08-20T07:20:01;6.13;;;3.25;;
47894;SDS011;33653;52.302;8.134;2023-08-20T07:25:03;11.50;;;3.83;;
47894;SDS011;33653;52.302;8.134;2023-08-20T07:27:32;9.80;;;3.13;;
47894;SDS011;33653;52.302;8.134;2023-08-20T07:30:01;4.88;;;3.22;;
47894;SDS011;33653;52.302;8.134;2023-08-20T07:32:30;10.30;;;3.55;;
47894;SDS011;33653;52.302;8.134;2023-08-20T07:34:58;5.45;;;3.10;;
47894;SDS011;33653;52.302;8.134;2023-08-20T07:37:27;6.35;;;3.50;;
47894;SDS011;33653;52.302;8.134;2023-08-20T07:39:55;6.25;;;3.55;;
47894;SDS011;33653;52.302;8.134;2023-08-20T07:42:23;3.95;;;3.03;;
47894;SDS011;33653;52.302;8.134;2023-08-20T07:44:52;7.10;;;3.30;;
47894;SDS011;33653;52.302;8.134;2023-08-20T07:47:19;6.28;;;3.97;;
47894;SDS011;33653;52.302;8.134;2023-08-20T07:49:48;6.47;;;4.20;;
47894;SDS011;33653;52.302;8.134;2023-08-20T07:52:16;5.35;;;3.35;;
47894;SDS011;33653;52.302;8.134;2023-08-20T07:54:44;4.03;;;3.35;;
47894;SDS011;33653;52.302;8.134;2023-08-20T07:57:12;7.30;;;3.45;;
47894;SDS011;33653;52.302;8.134;2023-08-20T07:59:41;6.82;;;3.60;;
47894;SDS011;33653;52.302;8.134;2023-08-20T08:05:01;7.53;;;3.50;;
47894;SDS011;33653;52.302;8.134;2023-08-20T08:07:29;4.97;;;3.47;;
47894;SDS011;33653;52.302;8.134;2023-08-20T08:09:57;6.35;;;3.90;;
47894;SDS011;33653;52.302;8.134;2023-08-20T08:12:26;8.00;;;4.70;;
47894;SDS011;33653;52.302;8.134;2023-08-20T08:14:54;8.07;;;4.18;;
47894;SDS011;33653;52.302;8.134;2023-08-20T08:17:22;4.85;;;3.75;;
47894;SDS011;33653;52.302;8.134;2023-08-20T08:19:50;6.60;;;4.03;;
47894;SDS011;33653;52.302;8.134;2023-08-20T08:22:21;5.45;;;3.80;;
47894;SDS011;33653;52.302;8.134;2023-08-20T08:24:49;8.23;;;3.95;;
47894;SDS011;33653;52.302;8.134;2023-08-20T08:27:17;5.45;;;3.47;;
47894;SDS011;33653;52.302;8.134;2023-08-20T08:29:46;7.32;;;4.35;;
47894;SDS011;33653;52.302;8.134;2023-08-20T08:32:15;8.70;;;4.68;;
47894;SDS011;33653;52.302;8.134;2023-08-20T08:34:43;7.10;;;4.97;;
47894;SDS011;33653;52.302;8.134;2023-08-20T08:37:11;7.93;;;4.32;;
47894;SDS011;33653;52.302;8.134;2023-08-20T08:39:39;7.57;;;4.72;;
47894;SDS011;33653;52.302;8.134;2023-08-20T08:42:08;10.80;;;4.60;;
47894;SDS011;33653;52.302;8.134;2023-08-20T08:44:39;7.90;;;4.80;;
47894;SDS011;33653;52.302;8.134;2023-08-20T08:47:07;5.28;;;3.90;;
47894;SDS011;33653;52.302;8.134;2023-08-20T08:49:35;9.95;;;4.00;;
47894;SDS011;33653;52.302;8.134;2023-08-20T08:52:04;7.13;;;4.47;;
47894;SDS011;33653;52.302;8.134;2023-08-20T08:54:33;7.32;;;4.10;;
47894;SDS011;33653;52.302;8.134;2023-08-20T08:57:02;6.35;;;3.90;;
47894;SDS011;33653;52.302;8.134;2023-08-20T08:59:31;5.47;;;4.00;;
47894;SDS011;33653;52.302;8.134;2023-08-20T09:02:00;7.30;;;4.65;;
47894;SDS011;33653;52.302;8.134;2023-08-20T09:04:31;13.70;;;4.70;;
47894;SDS011;33653;52.302;8.134;2023-08-20T09:06:59;7.30;;;3.67;;
47894;SDS011;33653;52.302;8.134;2023-08-20T09:09:28;5.18;;;3.58;;
47894;SDS011;33653;52.302;8.134;2023-08-20T09:12:01;7.18;;;3.60;;
47894;SDS011;33653;52.302;8.134;2023-08-20T09:14:47;4.72;;;3.53;;
47894;SDS011;33653;52.302;8.134;2023-08-20T09:17:18;6.35;;;3.35;;
47894;SDS011;33653;52.302;8.134;2023-08-20T09:19:48;3.47;;;3.08;;
47894;SDS011;33653;52.302;8.134;2023-08-20T09:22:16;5.90;;;3.17;;
47894;SDS011;33653;52.302;8.134;2023-08-20T09:24:45;3.97;;;3.17;;
47894;SDS011;33653;52.302;8.134;2023-08-20T09:27:23;6.72;;;3.40;;
47894;SDS011;33653;52.302;8.134;2023-08-20T09:29:53;6.07;;;3.30;;
47894;SDS011;33653;52.302;8.134;2023-08-20T09:32:25;4.70;;;3.67;;
47894;SDS011;33653;52.302;8.134;2023-08-20T09:34:55;6.70;;;4.00;;
47894;SDS011;33653;52.302;8.134;2023-08-20T09:37:24;4.70;;;3.20;;
47894;SDS011;33653;52.302;8.134;2023-08-20T09:39:52;4.38;;;3.08;;
47894;SDS011;33653;52.302;8.134;2023-08-20T09:42:20;5.18;;;2.90;;
47894;SDS011;33653;52.302;8.134;2023-08-20T09:44:49;6.65;;;3.15;;
47894;SDS011;33653;52.302;8.134;2023-08-20T09:47:18;3.92;;;3.00;;
47894;SDS011;33653;52.302;8.134;2023-08-20T09:49:47;3.30;;;2.80;;
47894;SDS011;33653;52.302;8.134;2023-08-20T09:52:16;5.78;;;3.42;;
47894;SDS011;33653;52.302;8.134;2023-08-20T09:55:11;6.30;;;3.17;;
47894;SDS011;33653;52.302;8.134;2023-08-20T09:57:44;5.65;;;3.05;;
47894;SDS011;33653;52.302;8.134;2023-08-20T10:00:17;6.18;;;3.50;;
47894;SDS011;33653;52.302;8.134;2023-08-20T10:02:46;4.10;;;3.15;;
47894;SDS011;33653;52.302;8.134;2023-08-20T10:05:14;4.68;;;2.75;;
47894;SDS011;33653;52.302;8.134;2023-08-20T10:07:43;5.30;;;2.75;;
47894;SDS011;33653;52.302;8.134;2023-08-20T10:10:11;3.45;;;2.70;;
47894;SDS011;33653;52.302;8.134;2023-08-20T10:12:40;5.88;;;3.08;;
47894;SDS011;33653;52.302;8.134;2023-08-20T10:15:11;3.58;;;2.50;;
47894;SDS011;33653;52.302;8.134;2023-08-20T10:17:42;5.70;;;2.90;;
47894;SDS011;33653;52.302;8.134;2023-08-20T10:20:14;3.05;;;2.25;;
47894;SDS011;33653;52.302;8.134;2023-08-20T10:22:45;3.95;;;2.60;;
47894;SDS011;33653;52.302;8.134;2023-08-20T10:25:24;3.63;;;2.72;;
47894;SDS011;33653;52.302;8.134;2023-08-20T10:27:53;3.83;;;2.03;;
47894;SDS011;33653;52.302;8.134;2023-08-20T10:30:25;3.63;;;2.42;;
47894;SDS011;33653;52.302;8.134;2023-08-20T10:32:57;5.55;;;2.42;;
47894;SDS011;33653;52.302;8.134;2023-08-20T10:35:46;4.45;;;3.17;;
47894;SDS011;33653;52.302;8.134;2023-08-20T10:38:18;5.07;;;2.20;;
47894;SDS011;33653;52.302;8.134;2023-08-20T10:40:56;4.28;;;2.10;;
47894;SDS011;33653;52.302;8.134;2023-08-20T10:43:37;3.67;;;2.35;;
47894;SDS011;33653;52.302;8.134;2023-08-20T10:48:48;4.30;;;2.10;;
47894;SDS011;33653;52.302;8.134;2023-08-20T11:01:55;4.18;;;2.03;;
47894;SDS011;33653;52.302;8.134;2023-08-20T11:04:29;5.13;;;2.35;;
47894;SDS011;33653;52.302;8.134;2023-08-20T11:07:01;4.72;;;2.30;;
47894;SDS011;33653;52.302;8.134;2023-08-20T11:11:59;4.05;;;1.90;;
47894;SDS011;33653;52.302;8.134;2023-08-20T11:14:27;2.70;;;1.75;;
47894;SDS011;33653;52.302;8.134;2023-08-20T11:16:56;2.90;;;1.80;;
47894;SDS011;33653;52.302;8.134;2023-08-20T11:19:24;3.75;;;2.33;;
47894;SDS011;33653;52.302;8.134;2023-08-20T11:21:52;4.22;;;2.15;;
47894;SDS011;33653;52.302;8.134;2023-08-20T11:27:15;4.22;;;1.90;;
47894;SDS011;33653;52.302;8.134;2023-08-20T11:29:43;2.42;;;1.85;;
47894;SDS011;33653;52.302;8.134;2023-08-20T11:32:15;2.92;;;1.98;;
47894;SDS011;33653;52.302;8.134;2023-08-20T11:34:43;1.92;;;1.65;;
47894;SDS011;33653;52.302;8.134;2023-08-20T11:37:12;2.92;;;1.67;;
47894;SDS011;33653;52.302;8.134;2023-08-20T11:39:41;6.25;;;2.40;;
47894;SDS011;33653;52.302;8.134;2023-08-20T11:42:10;3.40;;;2.30;;
47894;SDS011;33653;52.302;8.134;2023-08-20T11:44:42;2.22;;;1.98;;
47894;SDS011;33653;52.302;8.134;2023-08-20T11:47:14;2.72;;;1.92;;
47894;SDS011;33653;52.302;8.134;2023-08-20T11:50:01;2.63;;;2.00;;
47894;SDS011;33653;52.302;8.134;2023-08-20T11:52:32;6.68;;;2.33;;
47894;SDS011;33653;52.302;8.134;2023-08-20T11:55:01;5.03;;;2.38;;
47894;SDS011;33653;52.302;8.134;2023-08-20T11:57:30;2.97;;;1.98;;
47894;SDS011;33653;52.302;8.134;2023-08-20T12:00:05;5.50;;;2.00;;
47894;SDS011;33653;52.302;8.134;2023-08-20T12:02:43;2.80;;;1.80;;
47894;SDS011;33653;52.302;8.134;2023-08-20T12:05:12;4.55;;;1.90;;
47894;SDS011;33653;52.302;8.134;2023-08-20T12:07:41;4.10;;;2.00;;
47894;SDS011;33653;52.302;8.134;2023-08-20T12:10:19;4.15;;;1.88;;
47894;SDS011;33653;52.302;8.134;2023-08-20T12:12:49;3.65;;;2.05;;
47894;SDS011;33653;52.302;8.134;2023-08-20T12:15:18;3.33;;;1.95;;
47894;SDS011;33653;52.302;8.134;2023-08-20T12:20:41;4.22;;;2.10;;
47894;SDS011;33653;52.302;8.134;2023-08-20T12:23:09;3.72;;;2.22;;
47894;SDS011;33653;52.302;8.134;2023-08-20T12:28:07;3.22;;;2.20;;
47894;SDS011;33653;52.302;8.134;2023-08-20T12:30:36;2.17;;;1.92;;
47894;SDS011;33653;52.302;8.134;2023-08-20T12:33:05;3.03;;;1.77;;
47894;SDS011;33653;52.302;8.134;2023-08-20T12:35:35;4.18;;;2.15;;
47894;SDS011;33653;52.302;8.134;2023-08-20T12:38:03;6.50;;;2.63;;
47894;SDS011;33653;52.302;8.134;2023-08-20T12:40:32;2.47;;;2.20;;
47894;SDS011;33653;52.302;8.134;2023-08-20T12:43:00;2.70;;;1.95;;
47894;SDS011;33653;52.302;8.134;2023-08-20T12:45:28;3.25;;;2.08;;
47894;SDS011;33653;52.302;8.134;2023-08-20T12:48:00;5.57;;;1.83;;
47894;SDS011;33653;52.302;8.134;2023-08-20T12:50:29;4.30;;;2.10;;
47894;SDS011;33653;52.302;8.134;2023-08-20T12:55:52;3.85;;;2.15;;
47894;SDS011;33653;52.302;8.134;2023-08-20T12:58:20;3.72;;;2.05;;
47894;SDS011;33653;52.302;8.134;2023-08-20T13:00:49;3.63;;;2.40;;
47894;SDS011;33653;52.302;8.134;2023-08-20T13:03:18;3.10;;;2.05;;
47894;SDS011;33653;52.302;8.134;2023-08-20T13:05:47;4.25;;;2.28;;
47894;SDS011;33653;52.302;8.134;2023-08-20T13:08:21;3.65;;;2.45;;
47894;SDS011;33653;52.302;8.134;2023-08-20T13:10:52;2.20;;;1.90;;
47894;SDS011;33653;52.302;8.134;2023-08-20T13:13:24;2.83;;;2.17;;
47894;SDS011;33653;52.302;8.134;2023-08-20T13:15:53;3.03;;;2.30;;
47894;SDS011;33653;52.302;8.134;2023-08-20T13:18:22;3.45;;;2.22;;
47894;SDS011;33653;52.302;8.134;2023-08-20T13:23:23;5.75;;;2.53;;
47894;SDS011;33653;52.302;8.134;2023-08-20T13:25:51;6.20;;;2.40;;
47894;SDS011;33653;52.302;8.134;2023-08-20T13:28:32;3.05;;;1.88;;
47894;SDS011;33653;52.302;8.134;2023-08-20T13:31:03;5.25;;;2.30;;
47894;SDS011;33653;52.302;8.134;2023-08-20T13:33:31;3.78;;;2.58;;
47894;SDS011;33653;52.302;8.134;2023-08-20T13:38:55;3.17;;;2.28;;
47894;SDS011;33653;52.302;8.134;2023-08-20T13:41:23;3.33;;;2.25;;
47894;SDS011;33653;52.302;8.134;2023-08-20T13:43:52;3.08;;;2.20;;
47894;SDS011;33653;52.302;8.134;2023-08-20T13:46:20;3.22;;;2.13;;
47894;SDS011;33653;52.302;8.134;2023-08-20T13:48:49;3.15;;;2.10;;
47894;SDS011;33653;52.302;8.134;2023-08-20T13:51:17;2.67;;;2.10;;
47894;SDS011;33653;52.302;8.134;2023-08-20T13:54:03;3.85;;;2.45;;
47894;SDS011;33653;52.302;8.134;2023-08-20T13:56:31;3.03;;;1.90;;
47894;SDS011;33653;52.302;8.134;2023-08-20T13:58:59;3.90;;;2.38;;
47894;SDS011;33653;52.302;8.134;2023-08-20T14:01:32;3.00;;;2.28;;
47894;SDS011;33653;52.302;8.134;2023-08-20T14:04:19;9.13;;;2.70;;
47894;SDS011;33653;52.302;8.134;2023-08-20T14:06:47;2.45;;;2.03;;
47894;SDS011;33653;52.302;8.134;2023-08-20T14:09:21;3.83;;;2.30;;
47894;SDS011;33653;52.302;8.134;2023-08-20T14:11:49;2.75;;;1.90;;
47894;SDS011;33653;52.302;8.134;2023-08-20T14:14:18;2.08;;;1.65;;
47894;SDS011;33653;52.302;8.134;2023-08-20T14:19:39;3.53;;;2.15;;
47894;SDS011;33653;52.302;8.134;2023-08-20T14:22:07;2.58;;;1.50;;
47894;SDS011;33653;52.302;8.134;2023-08-20T14:24:36;3.03;;;2.00;;
47894;SDS011;33653;52.302;8.134;2023-08-20T14:27:04;3.63;;;1.73;;
47894;SDS011;33653;52.302;8.134;2023-08-20T14:29:34;2.28;;;1.85;;
47894;SDS011;33653;52.302;8.134;2023-08-20T14:32:03;3.27;;;1.93;;
47894;SDS011;33653;52.302;8.134;2023-08-20T14:34:31;2.93;;;2.07;;
47894;SDS011;33653;52.302;8.134;2023-08-20T14:37:04;4.13;;;2.05;;
47894;SDS011;33653;52.302;8.134;2023-08-20T14:39:33;4.70;;;1.83;;
47894;SDS011;33653;52.302;8.134;2023-08-20T14:42:01;3.30;;;1.95;;
47894;SDS011;33653;52.302;8.134;2023-08-20T14:44:32;2.28;;;1.40;;
47894;SDS011;33653;52.302;8.134;2023-08-20T14:47:00;3.13;;;1.80;;
47894;SDS011;33653;52.302;8.134;2023-08-20T14:49:40;2.00;;;1.33;;
47894;SDS011;33653;52.302;8.134;2023-08-20T14:55:14;3.95;;;1.50;;
47894;SDS011;33653;52.302;8.134;2023-08-20T15:03:09;4.00;;;1.95;;
47894;SDS011;33653;52.302;8.134;2023-08-20T15:05:42;4.10;;;1.73;;
47894;SDS011;33653;52.302;8.134;2023-08-20T15:08:13;2.55;;;1.70;;
47894;SDS011;33653;52.302;8.134;2023-08-20T15:13:35;2.35;;;1.58;;
47894;SDS011;33653;52.302;8.134;2023-08-20T15:16:03;2.63;;;1.38;;
47894;SDS011;33653;52.302;8.134;2023-08-20T15:18:32;2.00;;;1.50;;
47894;SDS011;33653;52.302;8.134;2023-08-20T15:21:03;8.15;;;1.73;;
47894;SDS011;33653;52.302;8.134;2023-08-20T15:23:33;3.63;;;1.60;;
47894;SDS011;33653;52.302;8.134;2023-08-20T15:26:01;7.95;;;2.05;;
47894;SDS011;33653;52.302;8.134;2023-08-20T15:28:29;3.97;;;1.58;;
47894;SDS011;33653;52.302;8.134;2023-08-20T15:31:04;2.65;;;1.33;;
47894;SDS011;33653;52.302;8.134;2023-08-20T15:33:33;2.75;;;1.25;;
47894;SDS011;33653;52.302;8.134;2023-08-20T15:36:04;1.83;;;1.30;;
47894;SDS011;33653;52.302;8.134;2023-08-20T15:38:33;3.35;;;1.02;;
47894;SDS011;33653;52.302;8.134;2023-08-20T15:41:01;0.98;;;0.90;;
47894;SDS011;33653;52.302;8.134;2023-08-20T15:43:38;1.40;;;1.20;;
47894;SDS011;33653;52.302;8.134;2023-08-20T15:49:01;1.75;;;1.10;;
47894;SDS011;33653;52.302;8.134;2023-08-20T15:51:30;1.83;;;1.05;;
47894;SDS011;33653;52.302;8.134;2023-08-20T15:54:01;3.60;;;1.30;;
47894;SDS011;33653;52.302;8.134;2023-08-20T15:56:30;3.25;;;1.15;;
47894;SDS011;33653;52.302;8.134;2023-08-20T15:58:58;3.55;;;1.00;;
47894;SDS011;33653;52.302;8.134;2023-08-20T16:01:29;1.58;;;1.05;;
47894;SDS011;33653;52.302;8.134;2023-08-20T16:04:01;2.00;;;0.93;;
47894;SDS011;33653;52.302;8.134;2023-08-20T16:06:29;3.65;;;1.00;;
47894;SDS011;33653;52.302;8.134;2023-08-20T16:08:58;3.70;;;1.05;;
47894;SDS011;33653;52.302;8.134;2023-08-20T16:11:26;2.03;;;1.10;;
47894;SDS011;33653;52.302;8.134;2023-08-20T16:13:55;2.83;;;0.70;;
47894;SDS011;33653;52.302;8.134;2023-08-20T16:16:23;3.05;;;0.90;;
47894;SDS011;33653;52.302;8.134;2023-08-20T16:18:52;3.28;;;1.05;;
47894;SDS011;33653;52.302;8.134;2023-08-20T16:24:14;1.85;;;1.13;;
47894;SDS011;33653;52.302;8.134;2023-08-20T16:26:43;3.20;;;1.13;;
47894;SDS011;33653;52.302;8.134;2023-08-20T16:29:11;3.25;;;0.90;;
47894;SDS011;33653;52.302;8.134;2023-08-20T16:31:39;3.03;;;0.98;;
47894;SDS011;33653;52.302;8.134;2023-08-20T16:34:08;2.65;;;1.00;;